createdAt,value
2023-04-16T00:01:43.112Z,20.33
2023-04-16T00:04:11.095Z,20.65
2023-04-16T00:06:38.366Z,17.23
2023-04-16T00:09:05.632Z,15.60
2023-04-16T00:11:33.075Z,15.73
2023-04-16T00:14:00.351Z,15.98
2023-04-16T00:16:28.069Z,15.52
2023-04-16T00:18:55.426Z,14.20
2023-04-16T00:21:22.847Z,14.57
2023-04-16T00:23:50.096Z,18.58
2023-04-16T00:26:17.477Z,21.27
2023-04-16T00:28:46.281Z,16.73
2023-04-16T00:31:13.622Z,17.90
2023-04-16T00:33:41.038Z,15.35
2023-04-16T00:36:09.500Z,14.32
2023-04-16T00:38:37.353Z,15.50
2023-04-16T00:41:04.683Z,14.80
2023-04-16T00:43:31.895Z,16.80
2023-04-16T00:45:59.379Z,16.85
2023-04-16T00:48:32.365Z,14.10
2023-04-16T00:51:01.630Z,20.02
2023-04-16T00:53:29.116Z,14.23
2023-04-16T00:55:57.361Z,17.15
2023-04-16T00:58:25.656Z,14.25
2023-04-16T01:00:52.937Z,15.20
2023-04-16T01:03:20.414Z,18.65
2023-04-16T01:05:51.761Z,15.50
2023-04-16T01:10:47.386Z,13.90
2023-04-16T01:13:14.938Z,19.30
2023-04-16T01:15:42.163Z,16.05
2023-04-16T01:18:20.471Z,17.80
2023-04-16T01:20:48.976Z,17.98
2023-04-16T01:23:18.466Z,18.25
2023-04-16T01:25:46.824Z,15.48
2023-04-16T01:28:14.114Z,16.90
2023-04-16T01:30:41.637Z,15.68
2023-04-16T01:33:31.856Z,17.85
2023-04-16T01:35:59.282Z,16.80
2023-04-16T01:38:26.475Z,15.20
2023-04-16T01:40:58.045Z,15.38
2023-04-16T01:43:25.705Z,17.20
2023-04-16T01:46:08.080Z,17.58
2023-04-16T01:48:35.826Z,15.43
2023-04-16T01:51:04.879Z,13.82
2023-04-16T01:53:32.285Z,18.75
2023-04-16T01:55:59.584Z,14.73
2023-04-16T01:58:29.642Z,15.38
2023-04-16T02:00:57.281Z,16.25
2023-04-16T02:03:25.094Z,13.35
2023-04-16T02:05:53.449Z,14.43
2023-04-16T02:08:20.996Z,17.83
2023-04-16T02:10:49.818Z,13.10
2023-04-16T02:13:17.488Z,15.67
2023-04-16T02:15:48.056Z,18.20
2023-04-16T02:18:17.742Z,14.80
2023-04-16T02:20:46.614Z,16.77
2023-04-16T02:23:17.136Z,14.02
2023-04-16T02:25:46.273Z,16.35
2023-04-16T02:28:16.467Z,12.85
2023-04-16T02:30:45.741Z,12.73
2023-04-16T02:33:14.904Z,13.65
2023-04-16T02:35:52.227Z,16.67
2023-04-16T02:38:19.594Z,15.48
2023-04-16T02:40:46.918Z,18.55
2023-04-16T02:43:16.297Z,12.43
2023-04-16T02:45:44.774Z,14.52
2023-04-16T02:48:12.229Z,16.23
2023-04-16T02:50:39.432Z,15.43
2023-04-16T02:53:07.784Z,18.65
2023-04-16T02:55:35.084Z,21.65
2023-04-16T02:58:02.700Z,21.48
2023-04-16T03:00:30.030Z,14.73
2023-04-16T03:02:57.595Z,14.73
2023-04-16T03:05:25.110Z,12.95
2023-04-16T03:07:56.727Z,12.88
2023-04-16T03:10:24.293Z,12.07
2023-04-16T03:12:51.881Z,16.52
2023-04-16T03:15:19.206Z,15.77
2023-04-16T03:17:46.446Z,19.02
2023-04-16T03:20:14.648Z,15.65
2023-04-16T03:22:43.682Z,15.30
2023-04-16T03:25:11.130Z,13.93
2023-04-16T03:27:39.789Z,15.35
2023-04-16T03:30:08.255Z,15.40
2023-04-16T03:32:37.234Z,13.63
2023-04-16T03:35:06.301Z,11.82
2023-04-16T03:37:34.269Z,12.20
2023-04-16T03:40:01.639Z,13.45
2023-04-16T03:42:29.602Z,17.42
2023-04-16T03:44:57.696Z,13.07
2023-04-16T03:47:24.970Z,16.55
2023-04-16T03:49:55.166Z,13.55
2023-04-16T03:52:23.031Z,14.73
2023-04-16T03:54:50.341Z,16.30
2023-04-16T03:57:27.080Z,13.07
2023-04-16T03:59:58.461Z,12.60
2023-04-16T04:02:28.521Z,11.68
2023-04-16T04:04:55.939Z,15.07
2023-04-16T04:07:23.761Z,11.60
2023-04-16T04:09:52.539Z,14.38
2023-04-16T04:12:19.818Z,13.90
2023-04-16T04:14:47.881Z,14.45
2023-04-16T04:17:15.773Z,12.25
2023-04-16T04:19:54.249Z,18.50
2023-04-16T04:22:28.561Z,12.93
2023-04-16T04:24:55.833Z,17.05
2023-04-16T04:27:23.400Z,17.17
2023-04-16T04:29:50.726Z,16.23
2023-04-16T04:32:17.978Z,15.65
2023-04-16T04:34:46.295Z,18.98
2023-04-16T04:37:13.588Z,15.05
2023-04-16T04:39:41.088Z,14.35
2023-04-16T04:42:08.665Z,20.38
2023-04-16T04:44:35.981Z,21.13
2023-04-16T04:47:03.139Z,19.52
2023-04-16T04:49:31.207Z,15.00
2023-04-16T04:51:58.429Z,18.60
2023-04-16T04:54:25.995Z,23.90
2023-04-16T04:56:54.232Z,27.30
2023-04-16T04:59:21.750Z,27.70
2023-04-16T05:01:49.861Z,30.33
2023-04-16T05:04:17.633Z,29.67
2023-04-16T05:06:44.900Z,31.02
2023-04-16T05:09:12.591Z,31.30
2023-04-16T05:11:42.414Z,34.30
2023-04-16T05:14:09.707Z,41.25
2023-04-16T05:16:37.473Z,45.63
2023-04-16T05:19:05.196Z,38.15
2023-04-16T05:21:32.561Z,35.55
2023-04-16T05:24:00.105Z,40.03
2023-04-16T05:26:27.334Z,40.17
2023-04-16T05:28:54.623Z,37.83
2023-04-16T05:31:22.215Z,40.90
2023-04-16T05:33:49.518Z,38.20
2023-04-16T05:36:17.003Z,38.75
2023-04-16T05:38:44.205Z,38.65
2023-04-16T05:41:11.386Z,37.92
2023-04-16T05:43:38.568Z,47.72
2023-04-16T05:46:05.885Z,40.83
2023-04-16T05:48:33.142Z,39.67
2023-04-16T05:51:02.190Z,43.55
2023-04-16T05:53:29.471Z,41.35
2023-04-16T05:55:56.843Z,48.50
2023-04-16T05:58:24.106Z,42.28
2023-04-16T06:00:51.576Z,47.97
2023-04-16T06:03:19.003Z,40.72
2023-04-16T06:05:46.400Z,46.63
2023-04-16T06:08:13.712Z,36.10
2023-04-16T06:10:40.991Z,40.22
2023-04-16T06:13:08.284Z,35.65
2023-04-16T06:15:35.801Z,37.45
2023-04-16T06:18:03.036Z,36.97
2023-04-16T06:20:30.640Z,39.20
2023-04-16T06:22:58.151Z,33.65
2023-04-16T06:25:25.476Z,33.63
2023-04-16T06:27:52.751Z,33.05
2023-04-16T06:30:20.104Z,36.15
2023-04-16T06:32:48.026Z,35.20
2023-04-16T06:35:15.450Z,34.53
2023-04-16T06:37:42.691Z,34.60
2023-04-16T06:40:10.412Z,39.95
2023-04-16T06:42:37.680Z,32.30
2023-04-16T06:45:05.378Z,33.22
2023-04-16T06:47:33.050Z,33.75
2023-04-16T06:50:00.562Z,29.83
2023-04-16T06:52:29.160Z,29.73
2023-04-16T06:54:56.773Z,31.40
2023-04-16T06:57:24.137Z,29.88
2023-04-16T06:59:51.360Z,26.80
2023-04-16T07:02:18.890Z,34.65
2023-04-16T07:04:46.279Z,33.53
2023-04-16T07:07:13.538Z,32.67
2023-04-16T07:09:40.728Z,40.85
2023-04-16T07:12:08.523Z,38.38
2023-04-16T07:14:35.766Z,37.83
2023-04-16T07:17:03.023Z,40.67
2023-04-16T07:19:32.586Z,35.35
2023-04-16T07:22:00.317Z,37.40
2023-04-16T07:24:27.670Z,39.55
2023-04-16T07:26:54.935Z,41.50
2023-04-16T07:29:22.884Z,39.45
2023-04-16T07:31:50.320Z,43.55
2023-04-16T07:34:17.843Z,38.28
2023-04-16T07:36:45.239Z,41.53
2023-04-16T07:39:13.261Z,41.58
2023-04-16T07:41:41.335Z,39.72
2023-04-16T07:44:10.484Z,38.25
2023-04-16T07:46:46.296Z,40.83
2023-04-16T07:49:15.084Z,39.63
2023-04-16T07:51:42.458Z,37.83
2023-04-16T07:54:10.673Z,41.65
2023-04-16T07:56:38.027Z,42.75
2023-04-16T07:59:21.074Z,39.60
2023-04-16T08:01:50.604Z,40.38
2023-04-16T08:04:23.119Z,43.53
2023-04-16T08:06:51.684Z,45.88
2023-04-16T08:09:20.487Z,42.50
2023-04-16T08:11:49.256Z,38.42
2023-04-16T08:14:17.542Z,42.60
2023-04-16T08:16:44.940Z,41.80
2023-04-16T08:19:12.567Z,39.22
2023-04-16T08:21:40.111Z,39.58
2023-04-16T08:24:07.355Z,40.80
2023-04-16T08:26:34.526Z,34.72
2023-04-16T08:29:01.912Z,37.25
2023-04-16T08:31:29.549Z,39.05
2023-04-16T08:33:56.898Z,38.10
2023-04-16T08:36:24.190Z,38.65
2023-04-16T08:38:52.299Z,40.47
2023-04-16T08:41:21.974Z,39.47
2023-04-16T08:43:51.133Z,35.50
2023-04-16T08:46:20.910Z,37.70
2023-04-16T08:48:49.860Z,35.05
2023-04-16T08:51:17.443Z,36.08
2023-04-16T08:53:54.312Z,36.20
2023-04-16T08:56:23.690Z,37.10
2023-04-16T08:58:51.581Z,36.55
2023-04-16T09:01:19.164Z,32.92
2023-04-16T09:03:49.555Z,26.85
2023-04-16T09:06:18.364Z,34.40
2023-04-16T09:08:46.574Z,26.17
2023-04-16T09:11:14.431Z,27.50
2023-04-16T09:13:41.655Z,23.15
2023-04-16T09:16:09.509Z,21.83
2023-04-16T09:18:36.858Z,23.35
2023-04-16T09:21:05.172Z,27.00
2023-04-16T09:23:32.511Z,22.60
2023-04-16T09:25:59.838Z,22.15
2023-04-16T09:28:48.657Z,23.63
2023-04-16T09:31:17.870Z,25.25
2023-04-16T09:34:02.463Z,20.33
2023-04-16T09:36:30.114Z,28.05
2023-04-16T09:38:58.133Z,23.58
2023-04-16T09:41:28.500Z,22.10
2023-04-16T09:44:00.511Z,23.63
2023-04-16T09:46:37.649Z,21.25
2023-04-16T09:49:15.494Z,19.55
2023-04-16T09:51:44.247Z,18.80
2023-04-16T09:54:11.598Z,17.27
2023-04-16T09:56:43.458Z,20.50
2023-04-16T09:59:18.140Z,16.88
2023-04-16T10:01:47.190Z,21.13
2023-04-16T10:04:14.548Z,18.38
2023-04-16T10:06:41.820Z,17.63
2023-04-16T10:09:10.772Z,13.68
2023-04-16T10:11:38.444Z,18.30
2023-04-16T10:14:05.755Z,19.85
2023-04-16T10:16:33.174Z,15.52
2023-04-16T10:19:00.472Z,18.55
2023-04-16T10:21:33.689Z,14.10
2023-04-16T10:24:02.330Z,16.10
2023-04-16T10:26:30.690Z,16.13
2023-04-16T10:28:59.413Z,15.38
2023-04-16T10:31:27.487Z,18.25
2023-04-16T10:33:55.339Z,18.10
2023-04-16T10:36:29.196Z,13.98
2023-04-16T10:38:58.593Z,17.10
2023-04-16T10:41:26.822Z,15.73
2023-04-16T10:44:12.777Z,15.98
2023-04-16T10:46:42.577Z,17.70
2023-04-16T10:49:20.441Z,15.52
2023-04-16T10:51:58.669Z,16.65
2023-04-16T10:54:28.182Z,19.63
2023-04-16T10:57:01.224Z,16.15
2023-04-16T10:59:39.790Z,16.70
2023-04-16T11:02:09.746Z,14.65
2023-04-16T11:04:38.796Z,14.80
2023-04-16T11:07:18.352Z,16.77
2023-04-16T11:10:04.044Z,17.05
2023-04-16T11:12:42.106Z,12.00
2023-04-16T11:15:11.448Z,15.98
2023-04-16T11:17:40.819Z,12.70
2023-04-16T11:20:19.488Z,13.65
2023-04-16T11:23:10.800Z,12.82
2023-04-16T11:25:38.315Z,13.02
2023-04-16T11:28:05.539Z,12.50
2023-04-16T11:30:35.043Z,13.05
2023-04-16T11:33:08.035Z,13.48
2023-04-16T11:35:35.995Z,12.68
2023-04-16T11:38:04.112Z,10.88
2023-04-16T11:40:31.898Z,9.98
2023-04-16T11:43:04.073Z,12.98
2023-04-16T11:45:31.485Z,10.20
2023-04-16T11:47:58.903Z,10.50
2023-04-16T11:50:28.153Z,10.55
2023-04-16T11:52:57.411Z,14.05
2023-04-16T11:55:24.880Z,8.65
2023-04-16T11:57:52.799Z,11.50
2023-04-16T12:00:24.703Z,11.15
2023-04-16T12:02:54.251Z,17.25
2023-04-16T12:05:32.535Z,11.13
2023-04-16T12:08:01.698Z,11.05
2023-04-16T12:10:29.732Z,8.48
2023-04-16T12:13:14.662Z,10.50
2023-04-16T12:15:47.067Z,11.20
2023-04-16T12:18:16.164Z,9.57
2023-04-16T12:20:44.287Z,8.65
2023-04-16T12:23:29.188Z,9.43
2023-04-16T12:25:59.818Z,6.65
2023-04-16T12:28:35.891Z,8.18
2023-04-16T12:31:03.556Z,8.65
2023-04-16T12:33:31.437Z,7.88
2023-04-16T12:35:58.793Z,13.02
2023-04-16T12:38:27.016Z,8.18
2023-04-16T12:40:57.159Z,9.23
2023-04-16T12:43:25.363Z,8.82
2023-04-16T12:45:52.896Z,9.30
2023-04-16T12:48:20.320Z,10.45
2023-04-16T12:50:47.619Z,9.18
2023-04-16T12:53:14.880Z,8.35
2023-04-16T12:55:42.536Z,10.02
2023-04-16T12:58:12.461Z,11.88
2023-04-16T13:03:09.451Z,8.13
2023-04-16T13:05:36.881Z,8.88
2023-04-16T13:08:04.197Z,9.57
2023-04-16T13:10:31.381Z,8.70
2023-04-16T13:12:58.676Z,9.88
2023-04-16T13:15:25.863Z,10.98
2023-04-16T13:17:53.172Z,9.75
2023-04-16T13:20:22.488Z,8.93
2023-04-16T13:22:51.424Z,7.38
2023-04-16T13:25:18.792Z,7.32
2023-04-16T13:27:46.063Z,6.60
2023-04-16T13:30:13.712Z,7.68
2023-04-16T13:32:41.181Z,7.82
2023-04-16T13:35:10.758Z,7.55
2023-04-16T13:37:38.293Z,9.13
2023-04-16T13:40:06.688Z,7.25
2023-04-16T13:42:33.976Z,8.30
2023-04-16T13:45:01.471Z,7.45
2023-04-16T13:47:28.734Z,7.43
2023-04-16T13:49:56.084Z,9.07
2023-04-16T13:52:23.306Z,9.23
2023-04-16T13:54:50.861Z,7.55
2023-04-16T13:57:21.012Z,6.68
2023-04-16T13:59:49.834Z,11.50
2023-04-16T14:02:17.419Z,12.82
2023-04-16T14:04:44.853Z,8.48
2023-04-16T14:07:12.779Z,7.63
2023-04-16T14:09:40.139Z,8.40
2023-04-16T14:12:07.533Z,10.65
2023-04-16T14:14:35.217Z,8.82
2023-04-16T14:17:03.387Z,7.95
2023-04-16T14:19:30.845Z,5.78
2023-04-16T14:21:58.176Z,10.23
2023-04-16T14:24:25.907Z,9.70
2023-04-16T14:26:53.189Z,6.93
2023-04-16T14:29:20.502Z,7.93
2023-04-16T14:31:48.155Z,12.63
2023-04-16T14:34:15.536Z,9.57
2023-04-16T14:36:43.294Z,10.30
2023-04-16T14:39:11.348Z,8.60
2023-04-16T14:41:38.864Z,12.10
2023-04-16T14:44:06.866Z,8.15
2023-04-16T14:46:34.376Z,10.95
2023-04-16T14:49:01.792Z,9.38
2023-04-16T14:51:29.214Z,9.13
2023-04-16T14:53:56.789Z,7.45
2023-04-16T14:56:24.071Z,11.13
2023-04-16T14:58:51.502Z,10.48
2023-04-16T15:01:18.862Z,9.20
2023-04-16T15:03:46.237Z,7.65
2023-04-16T15:06:14.510Z,8.77
2023-04-16T15:08:42.039Z,10.27
2023-04-16T15:11:09.265Z,7.90
2023-04-16T15:13:36.652Z,7.93
2023-04-16T15:16:06.770Z,6.65
2023-04-16T15:21:01.196Z,5.75
2023-04-16T15:23:28.727Z,8.05
2023-04-16T15:25:55.955Z,8.02
2023-04-16T15:28:24.258Z,10.35
2023-04-16T15:30:52.400Z,6.65
2023-04-16T15:33:22.721Z,11.20
2023-04-16T15:38:21.290Z,7.30
2023-04-16T15:40:49.098Z,6.18
2023-04-16T15:43:16.622Z,9.57
2023-04-16T15:45:43.814Z,9.15
2023-04-16T15:48:11.094Z,4.95
2023-04-16T15:50:38.573Z,6.05
2023-04-16T15:53:06.027Z,8.27
2023-04-16T15:55:33.363Z,8.25
2023-04-16T15:58:00.733Z,7.25
2023-04-16T16:00:28.051Z,6.68
2023-04-16T16:02:55.554Z,6.40
2023-04-16T16:05:23.020Z,4.97
2023-04-16T16:07:50.439Z,7.80
2023-04-16T16:10:17.787Z,6.25
2023-04-16T16:12:46.533Z,4.80
2023-04-16T16:15:13.801Z,7.95
2023-04-16T16:17:41.242Z,6.15
2023-04-16T16:20:10.533Z,6.30
2023-04-16T16:22:38.220Z,6.38
2023-04-16T16:25:06.030Z,8.45
2023-04-16T16:27:33.483Z,4.82
2023-04-16T16:30:01.479Z,7.13
2023-04-16T16:32:28.790Z,6.75
2023-04-16T16:34:56.220Z,5.20
2023-04-16T16:37:23.398Z,6.20
2023-04-16T16:39:50.783Z,3.90
2023-04-16T16:42:18.924Z,3.50
2023-04-16T16:44:49.542Z,7.40
2023-04-16T16:47:16.923Z,6.88
2023-04-16T16:49:44.912Z,4.68
2023-04-16T16:52:12.139Z,5.75
2023-04-16T16:54:39.488Z,5.40
2023-04-16T16:57:07.064Z,4.28
2023-04-16T16:59:34.428Z,6.75
2023-04-16T17:02:03.123Z,5.95
2023-04-16T17:04:30.608Z,4.95
2023-04-16T17:06:57.946Z,6.93
2023-04-16T17:09:25.648Z,7.30
2023-04-16T17:11:53.013Z,7.85
2023-04-16T17:14:20.377Z,7.00
2023-04-16T17:16:49.954Z,7.30
2023-04-16T17:19:17.913Z,5.03
2023-04-16T17:21:45.589Z,7.82
2023-04-16T17:24:13.175Z,6.78
2023-04-16T17:26:41.140Z,6.60
2023-04-16T17:29:08.399Z,6.63
2023-04-16T17:31:35.884Z,8.00
2023-04-16T17:34:05.870Z,5.55
2023-04-16T17:36:33.209Z,5.18
2023-04-16T17:39:00.590Z,4.53
2023-04-16T17:41:28.388Z,4.20
2023-04-16T17:43:55.600Z,7.97
2023-04-16T17:46:22.972Z,4.60
2023-04-16T17:48:50.246Z,3.95
2023-04-16T17:51:17.497Z,8.68
2023-04-16T17:53:44.885Z,6.20
2023-04-16T17:56:13.073Z,8.00
2023-04-16T17:58:40.428Z,7.63
2023-04-16T18:01:07.798Z,5.82
2023-04-16T18:03:35.745Z,4.60
2023-04-16T18:06:03.461Z,5.40
2023-04-16T18:08:30.776Z,5.05
2023-04-16T18:10:58.083Z,6.72
2023-04-16T18:13:25.322Z,7.65
2023-04-16T18:15:53.691Z,7.20
2023-04-16T18:18:21.502Z,4.75
2023-04-16T18:20:48.809Z,7.13
2023-04-16T18:23:16.348Z,7.57
2023-04-16T18:25:44.582Z,7.88
2023-04-16T18:28:14.304Z,5.88
2023-04-16T18:30:42.571Z,6.20
2023-04-16T18:33:38.859Z,5.35
2023-04-16T18:36:04.745Z,4.88
2023-04-16T18:38:32.349Z,5.88
2023-04-16T18:40:59.653Z,8.82
2023-04-16T18:43:26.969Z,6.55
2023-04-16T18:45:54.383Z,5.07
2023-04-16T18:48:21.624Z,8.38
2023-04-16T18:50:48.887Z,9.52
2023-04-16T18:53:16.166Z,6.50
2023-04-16T18:55:43.355Z,5.55
2023-04-16T18:58:10.956Z,7.65
2023-04-16T19:00:38.267Z,7.30
2023-04-16T19:03:07.123Z,7.28
2023-04-16T19:05:34.877Z,7.93
2023-04-16T19:08:02.165Z,5.82
2023-04-16T19:10:29.654Z,8.88
2023-04-16T19:12:57.263Z,10.60
2023-04-16T19:15:24.620Z,7.07
2023-04-16T19:17:52.444Z,8.48
2023-04-16T19:20:20.510Z,10.02
2023-04-16T19:22:48.346Z,7.72
2023-04-16T19:25:15.778Z,6.72
2023-04-16T19:27:43.273Z,6.40
2023-04-16T19:30:10.903Z,5.28
2023-04-16T19:32:38.395Z,8.25
2023-04-16T19:35:06.180Z,7.00
2023-04-16T19:37:33.529Z,5.57
2023-04-16T19:40:02.047Z,6.50
2023-04-16T19:42:29.459Z,6.13
2023-04-16T19:44:56.814Z,6.90
2023-04-16T19:47:24.113Z,7.00
2023-04-16T19:49:51.599Z,6.70
2023-04-16T19:52:18.863Z,6.97
2023-04-16T19:54:46.232Z,7.22
2023-04-16T19:57:14.033Z,5.97
2023-04-16T19:59:41.336Z,6.00
2023-04-16T20:02:08.722Z,7.25
2023-04-16T20:04:36.444Z,5.68
2023-04-16T20:07:04.325Z,6.60
2023-04-16T20:09:31.692Z,6.97
2023-04-16T20:11:59.523Z,5.70
2023-04-16T20:14:26.920Z,10.55
2023-04-16T20:16:54.520Z,9.15
2023-04-16T20:19:22.121Z,7.13
2023-04-16T20:21:49.548Z,8.93
2023-04-16T20:24:17.096Z,8.77
2023-04-16T20:26:44.472Z,9.88
2023-04-16T20:29:12.347Z,7.82
2023-04-16T20:31:42.838Z,10.27
2023-04-16T20:34:10.262Z,6.70
2023-04-16T20:36:38.173Z,8.75
2023-04-16T20:39:07.327Z,10.90
2023-04-16T20:41:34.666Z,7.53
2023-04-16T20:44:05.892Z,11.10
2023-04-16T20:46:36.316Z,8.90
2023-04-16T20:49:03.757Z,8.32
2023-04-16T20:51:31.554Z,9.13
2023-04-16T20:53:59.010Z,7.18
2023-04-16T20:56:26.257Z,8.88
2023-04-16T20:58:54.010Z,10.55
2023-04-16T21:01:21.203Z,6.15
2023-04-16T21:03:48.839Z,9.48
2023-04-16T21:06:17.951Z,6.25
2023-04-16T21:08:45.476Z,7.25
2023-04-16T21:11:13.157Z,10.68
2023-04-16T21:13:40.478Z,6.90
2023-04-16T21:16:09.880Z,6.25
2023-04-16T21:18:37.381Z,6.53
2023-04-16T21:21:04.814Z,7.63
2023-04-16T21:23:32.181Z,7.82
2023-04-16T21:25:59.425Z,5.72
2023-04-16T21:28:26.617Z,5.13
2023-04-16T21:30:54.060Z,6.50
2023-04-16T21:33:21.373Z,8.98
2023-04-16T21:35:52.471Z,8.88
2023-04-16T21:38:20.932Z,6.90
2023-04-16T21:40:50.764Z,8.57
2023-04-16T21:43:18.043Z,5.95
2023-04-16T21:45:45.365Z,5.68
2023-04-16T21:48:12.619Z,8.13
2023-04-16T21:50:39.996Z,7.68
2023-04-16T21:53:07.402Z,6.32
2023-04-16T21:55:34.873Z,9.30
2023-04-16T21:58:02.978Z,7.43
2023-04-16T22:00:30.326Z,6.07
2023-04-16T22:03:00.096Z,7.68
2023-04-16T22:05:29.289Z,7.57
2023-04-16T22:07:56.745Z,6.28
2023-04-16T22:10:24.000Z,8.80
2023-04-16T22:12:54.840Z,6.03
2023-04-16T22:15:22.124Z,11.20
2023-04-16T22:17:49.481Z,4.72
2023-04-16T22:20:17.097Z,7.85
2023-04-16T22:22:44.376Z,5.05
2023-04-16T22:25:11.831Z,6.97
2023-04-16T22:27:39.579Z,7.47
2023-04-16T22:30:08.324Z,8.80
2023-04-16T22:32:35.670Z,6.25
2023-04-16T22:35:03.313Z,8.30
2023-04-16T22:37:30.748Z,6.32
2023-04-16T22:39:58.202Z,6.15
2023-04-16T22:42:25.478Z,6.88
2023-04-16T22:44:54.267Z,5.82
2023-04-16T22:47:21.973Z,7.65
2023-04-16T22:49:49.330Z,4.85
2023-04-16T22:52:16.569Z,6.03
2023-04-16T22:54:43.907Z,6.82
2023-04-16T22:57:11.095Z,7.43
2023-04-16T22:59:38.349Z,5.72
2023-04-16T23:02:05.938Z,7.45
2023-04-16T23:04:33.196Z,9.05
2023-04-16T23:07:00.846Z,6.55
2023-04-16T23:09:28.042Z,6.38
2023-04-16T23:11:55.858Z,6.60
2023-04-16T23:14:23.127Z,7.55
2023-04-16T23:16:50.273Z,6.68
2023-04-16T23:19:17.503Z,5.80
2023-04-16T23:21:44.773Z,6.07
2023-04-16T23:24:12.175Z,7.72
2023-04-16T23:26:39.397Z,8.27
2023-04-16T23:29:06.776Z,8.85
2023-04-16T23:31:34.122Z,6.55
2023-04-16T23:34:01.425Z,6.72
2023-04-16T23:36:28.847Z,5.07
2023-04-16T23:38:56.077Z,7.00
2023-04-16T23:41:23.741Z,9.07
2023-04-16T23:43:51.079Z,5.45
2023-04-16T23:46:18.349Z,6.38
2023-04-16T23:48:46.008Z,6.30
2023-04-16T23:51:17.951Z,7.28
2023-04-16T23:53:45.193Z,9.27
2023-04-16T23:56:13.234Z,4.85
2023-04-16T23:58:40.740Z,7.35
